createdAt,value
2017-06-18T00:00:19.857Z,20.40
2017-06-18T00:02:46.019Z,20.40
2017-06-18T00:05:12.250Z,20.40
2017-06-18T00:07:38.566Z,20.30
2017-06-18T00:10:04.870Z,20.30
2017-06-18T00:12:31.774Z,20.30
2017-06-18T00:14:57.958Z,20.30
2017-06-18T00:17:24.158Z,20.30
2017-06-18T00:19:51.396Z,20.30
2017-06-18T00:22:17.558Z,20.30
2017-06-18T00:24:43.751Z,20.20
2017-06-18T00:27:10.359Z,20.20
2017-06-18T00:29:36.594Z,20.20
2017-06-18T00:32:03.840Z,20.20
2017-06-18T00:34:30.050Z,20.20
2017-06-18T00:36:56.285Z,20.80
2017-06-18T00:39:22.550Z,20.30
2017-06-18T00:41:48.734Z,20.30
2017-06-18T00:44:14.985Z,20.30
2017-06-18T00:46:41.234Z,20.20
2017-06-18T00:49:08.654Z,20.20
2017-06-18T00:51:34.876Z,20.20
2017-06-18T00:54:01.219Z,20.20
2017-06-18T00:56:27.568Z,20.20
2017-06-18T00:58:53.896Z,20.20
2017-06-18T01:01:20.203Z,20.20
2017-06-18T01:03:46.422Z,20.20
2017-06-18T01:06:12.678Z,20.20
2017-06-18T01:08:39.023Z,20.20
2017-06-18T01:11:05.362Z,20.20
2017-06-18T01:13:31.639Z,20.20
2017-06-18T01:15:57.970Z,20.20
2017-06-18T01:18:24.226Z,20.20
2017-06-18T01:20:50.481Z,20.20
2017-06-18T01:23:16.761Z,20.10
2017-06-18T01:25:44.078Z,20.10
2017-06-18T01:28:10.374Z,20.10
2017-06-18T01:30:36.603Z,20.00
2017-06-18T01:33:02.799Z,20.10
2017-06-18T01:35:29.722Z,20.00
2017-06-18T01:37:56.653Z,20.00
2017-06-18T01:40:22.851Z,20.00
2017-06-18T01:42:49.362Z,20.00
2017-06-18T01:45:15.567Z,20.00
2017-06-18T01:47:41.941Z,20.00
2017-06-18T01:50:08.144Z,20.00
2017-06-18T01:52:39.621Z,19.90
2017-06-18T01:55:05.801Z,19.90
2017-06-18T01:57:31.991Z,19.90
2017-06-18T01:59:58.159Z,20.00
2017-06-18T02:02:24.364Z,19.90
2017-06-18T02:04:50.543Z,20.00
2017-06-18T02:07:16.814Z,20.00
2017-06-18T02:09:42.975Z,19.90
2017-06-18T02:12:09.183Z,19.90
2017-06-18T02:14:35.351Z,19.90
2017-06-18T02:17:02.234Z,19.90
2017-06-18T02:19:28.477Z,19.90
2017-06-18T02:21:54.641Z,19.80
2017-06-18T02:24:21.662Z,19.80
2017-06-18T02:27:02.764Z,19.80
2017-06-18T02:29:29.650Z,19.80
2017-06-18T02:31:55.855Z,19.80
2017-06-18T02:34:22.014Z,19.90
2017-06-18T02:36:48.174Z,19.90
2017-06-18T02:39:14.362Z,19.90
2017-06-18T02:41:40.520Z,19.90
2017-06-18T02:44:06.763Z,19.90
2017-06-18T02:46:32.952Z,19.90
2017-06-18T02:48:59.101Z,19.90
2017-06-18T02:51:25.315Z,19.90
2017-06-18T02:53:51.475Z,19.80
2017-06-18T02:56:17.648Z,19.90
2017-06-18T02:58:43.869Z,19.80
2017-06-18T03:01:10.011Z,19.70
2017-06-18T03:03:36.221Z,19.70
2017-06-18T03:06:02.410Z,19.70
2017-06-18T03:08:28.587Z,19.60
2017-06-18T03:10:54.772Z,19.60
2017-06-18T03:13:20.957Z,19.60
2017-06-18T03:15:47.162Z,19.60
2017-06-18T03:18:13.355Z,19.60
2017-06-18T03:20:39.563Z,19.60
2017-06-18T03:23:11.915Z,19.60
2017-06-18T03:25:38.097Z,19.60
2017-06-18T03:28:05.052Z,19.60
2017-06-18T03:30:31.947Z,19.60
2017-06-18T03:32:58.102Z,19.50
2017-06-18T03:35:24.308Z,19.60
2017-06-18T03:37:50.478Z,19.50
2017-06-18T03:40:17.413Z,19.50
2017-06-18T03:42:43.601Z,19.50
2017-06-18T03:45:09.787Z,19.60
2017-06-18T03:47:36.759Z,19.60
2017-06-18T03:50:02.948Z,19.60
2017-06-18T03:52:29.854Z,19.70
2017-06-18T03:54:56.011Z,19.70
2017-06-18T03:57:22.158Z,19.70
2017-06-18T03:59:49.083Z,19.70
2017-06-18T04:02:15.266Z,19.70
2017-06-18T04:04:41.471Z,19.70
2017-06-18T04:07:07.627Z,19.60
2017-06-18T04:09:33.826Z,19.50
2017-06-18T04:11:59.983Z,19.60
2017-06-18T04:14:26.889Z,19.60
2017-06-18T04:16:53.131Z,19.60
2017-06-18T04:19:19.294Z,19.60
2017-06-18T04:21:45.542Z,19.50
2017-06-18T04:24:11.811Z,19.50
2017-06-18T04:26:38.023Z,19.60
2017-06-18T04:29:04.982Z,19.60
2017-06-18T04:31:31.184Z,19.60
2017-06-18T04:33:57.355Z,19.60
2017-06-18T04:36:23.544Z,19.60
2017-06-18T04:38:50.471Z,19.60
2017-06-18T04:41:17.461Z,20.00
2017-06-18T04:43:44.362Z,19.60
2017-06-18T04:46:10.559Z,19.50
2017-06-18T04:48:37.742Z,19.50
2017-06-18T04:51:03.909Z,19.50
2017-06-18T04:53:30.088Z,19.50
2017-06-18T04:55:56.351Z,19.50
2017-06-18T04:58:22.559Z,19.50
2017-06-18T05:00:48.748Z,19.50
2017-06-18T05:03:14.941Z,19.50
2017-06-18T05:05:41.984Z,19.50
2017-06-18T05:08:08.140Z,19.50
2017-06-18T05:10:34.308Z,19.40
2017-06-18T05:13:00.491Z,19.40
2017-06-18T05:15:27.386Z,19.50
2017-06-18T05:17:53.599Z,19.50
2017-06-18T05:20:19.760Z,19.50
2017-06-18T05:22:45.982Z,19.50
2017-06-18T05:25:12.339Z,19.50
2017-06-18T05:27:39.302Z,19.60
2017-06-18T05:30:05.523Z,19.60
2017-06-18T05:32:31.785Z,19.60
2017-06-18T05:34:57.998Z,19.60
2017-06-18T05:37:24.243Z,19.60
2017-06-18T05:39:50.423Z,19.70
2017-06-18T05:42:17.366Z,19.70
2017-06-18T05:44:45.835Z,19.70
2017-06-18T05:47:14.973Z,19.80
2017-06-18T05:49:41.270Z,19.80
2017-06-18T06:01:53.263Z,19.90
2017-06-18T06:04:19.469Z,19.90
2017-06-18T06:06:45.627Z,20.00
2017-06-18T06:09:11.860Z,20.00
2017-06-18T06:11:38.059Z,20.00
2017-06-18T06:14:04.983Z,20.00
2017-06-18T06:16:31.179Z,20.00
2017-06-18T06:18:57.675Z,20.10
2017-06-18T06:21:24.647Z,20.10
2017-06-18T06:23:50.829Z,20.10
2017-06-18T06:26:17.839Z,20.20
2017-06-18T06:28:44.011Z,20.30
2017-06-18T06:31:10.177Z,20.20
2017-06-18T06:33:36.985Z,20.10
2017-06-18T06:36:03.571Z,20.20
2017-06-18T06:38:29.719Z,20.20
2017-06-18T06:40:55.905Z,20.20
2017-06-18T06:43:22.118Z,20.40
2017-06-18T06:45:49.043Z,20.40
2017-06-18T06:48:15.210Z,20.40
2017-06-18T06:50:41.395Z,20.30
2017-06-18T06:53:07.590Z,20.40
2017-06-18T06:55:33.779Z,20.50
2017-06-18T06:58:00.699Z,20.60
2017-06-18T07:00:27.029Z,20.60
2017-06-18T07:02:53.230Z,20.70
2017-06-18T07:05:19.447Z,20.70
2017-06-18T07:07:45.643Z,20.80
2017-06-18T07:10:11.871Z,21.10
2017-06-18T07:12:38.861Z,21.10
2017-06-18T07:15:05.038Z,21.10
2017-06-18T07:17:31.938Z,21.20
2017-06-18T07:19:58.142Z,21.20
2017-06-18T07:22:24.316Z,21.40
2017-06-18T07:24:50.527Z,21.70
2017-06-18T07:27:16.722Z,21.80
2017-06-18T07:29:42.901Z,22.00
2017-06-18T07:32:09.197Z,22.30
2017-06-18T07:34:35.373Z,23.10
2017-06-18T07:37:02.331Z,23.50
2017-06-18T07:39:29.244Z,23.60
2017-06-18T07:41:55.477Z,23.60
2017-06-18T07:44:21.716Z,23.60
2017-06-18T07:46:47.895Z,23.50
2017-06-18T07:49:14.113Z,23.60
2017-06-18T07:51:40.479Z,23.40
2017-06-18T07:54:06.796Z,23.40
2017-06-18T07:56:33.013Z,23.70
2017-06-18T07:58:59.232Z,24.90
2017-06-18T08:01:25.446Z,24.90
2017-06-18T08:03:51.654Z,24.80
2017-06-18T08:06:17.955Z,25.10
2017-06-18T08:08:44.151Z,26.10
2017-06-18T08:11:10.388Z,27.10
2017-06-18T08:13:36.617Z,27.60
2017-06-18T08:16:02.811Z,28.20
2017-06-18T08:18:29.719Z,26.70
2017-06-18T08:20:55.885Z,26.70
2017-06-18T08:23:22.831Z,26.40
2017-06-18T08:25:49.795Z,26.00
2017-06-18T08:28:16.050Z,26.00
2017-06-18T08:30:42.242Z,25.80
2017-06-18T08:33:08.442Z,25.80
2017-06-18T08:35:34.630Z,25.60
2017-06-18T08:38:00.848Z,25.10
2017-06-18T08:40:27.048Z,24.80
2017-06-18T08:42:53.999Z,25.20
2017-06-18T08:45:20.933Z,25.90
2017-06-18T08:47:47.843Z,26.10
2017-06-18T08:50:14.402Z,26.60
2017-06-18T08:52:41.298Z,27.00
2017-06-18T08:55:07.527Z,27.40
2017-06-18T08:57:33.710Z,27.40
2017-06-18T08:59:59.915Z,27.20
2017-06-18T09:02:26.144Z,27.50
2017-06-18T09:04:54.024Z,27.50
2017-06-18T09:07:20.331Z,27.70
2017-06-18T09:09:57.825Z,27.30
2017-06-18T09:12:24.093Z,26.60
2017-06-18T09:14:51.078Z,26.40
2017-06-18T09:17:18.709Z,26.20
2017-06-18T09:19:45.706Z,26.20
2017-06-18T09:22:27.909Z,26.70
2017-06-18T09:24:54.409Z,26.50
2017-06-18T09:27:20.552Z,26.80
2017-06-18T09:29:47.604Z,26.80
2017-06-18T09:32:13.819Z,26.60
2017-06-18T09:34:40.012Z,26.40
2017-06-18T09:37:06.948Z,26.10
2017-06-18T09:39:52.637Z,25.80
2017-06-18T09:42:18.875Z,26.20
2017-06-18T09:44:45.851Z,27.30
2017-06-18T09:47:12.038Z,27.20
2017-06-18T09:49:38.235Z,26.90
2017-06-18T09:52:04.475Z,27.30
2017-06-18T09:54:30.658Z,27.10
2017-06-18T09:56:56.875Z,27.10
2017-06-18T09:59:23.864Z,27.40
2017-06-18T10:01:50.039Z,27.80
2017-06-18T10:04:16.259Z,27.80
2017-06-18T10:06:42.443Z,28.40
2017-06-18T10:09:08.735Z,29.00
2017-06-18T10:11:35.681Z,30.20
2017-06-18T10:14:02.628Z,30.40
2017-06-18T10:16:29.563Z,29.10
2017-06-18T10:18:55.764Z,29.10
2017-06-18T10:21:38.815Z,28.10
2017-06-18T10:24:05.764Z,26.80
2017-06-18T10:26:31.971Z,26.70
2017-06-18T10:28:58.177Z,25.90
2017-06-18T10:31:24.398Z,25.70
2017-06-18T10:33:50.684Z,25.70
2017-06-18T10:36:17.670Z,25.40
2017-06-18T10:38:43.864Z,25.40
2017-06-18T10:41:10.613Z,25.30
2017-06-18T10:43:36.838Z,25.90
2017-06-18T10:46:03.781Z,26.30
2017-06-18T10:48:32.005Z,26.10
2017-06-18T10:50:59.042Z,25.70
2017-06-18T10:53:25.239Z,25.50
2017-06-18T10:55:52.231Z,25.80
2017-06-18T10:58:18.496Z,26.00
2017-06-18T11:00:44.708Z,26.80
2017-06-18T11:03:10.894Z,26.80
2017-06-18T11:05:37.159Z,26.70
2017-06-18T11:08:03.354Z,26.40
2017-06-18T11:10:29.552Z,26.70
2017-06-18T11:12:55.755Z,27.60
2017-06-18T11:15:21.986Z,27.60
2017-06-18T11:17:48.183Z,27.20
2017-06-18T11:20:14.395Z,27.20
2017-06-18T11:22:40.655Z,28.00
2017-06-18T11:25:06.903Z,29.40
2017-06-18T11:27:33.074Z,29.40
2017-06-18T11:29:59.243Z,29.60
2017-06-18T11:32:25.419Z,29.60
2017-06-18T11:34:51.580Z,29.80
2017-06-18T11:37:17.722Z,29.80
2017-06-18T11:39:43.887Z,29.40
2017-06-18T11:42:10.479Z,28.70
2017-06-18T11:44:36.723Z,28.70
2017-06-18T11:47:02.898Z,28.50
2017-06-18T11:49:29.144Z,28.50
2017-06-18T11:51:55.323Z,28.60
2017-06-18T11:54:21.514Z,28.40
2017-06-18T11:56:47.678Z,28.30
2017-06-18T11:59:13.883Z,28.50
2017-06-18T12:01:40.135Z,28.30
2017-06-18T12:04:06.370Z,28.30
2017-06-18T12:06:32.571Z,28.40
2017-06-18T12:08:58.787Z,28.60
2017-06-18T12:11:25.075Z,28.60
2017-06-18T12:13:51.287Z,28.40
2017-06-18T12:16:17.502Z,28.00
2017-06-18T12:18:43.701Z,28.00
2017-06-18T12:21:09.886Z,28.10
2017-06-18T12:23:37.580Z,28.20
2017-06-18T12:26:03.760Z,28.20
2017-06-18T12:28:29.957Z,28.10
2017-06-18T12:30:56.153Z,27.80
2017-06-18T12:33:22.461Z,27.30
2017-06-18T12:35:49.558Z,27.50
2017-06-18T12:38:15.958Z,27.50
2017-06-18T12:40:42.918Z,28.10
2017-06-18T12:43:09.154Z,28.10
2017-06-18T12:45:35.333Z,28.30
2017-06-18T12:48:01.804Z,28.10
2017-06-18T12:50:29.049Z,28.10
2017-06-18T12:52:55.300Z,28.00
2017-06-18T12:55:21.515Z,27.50
2017-06-18T12:57:47.707Z,27.50
2017-06-18T13:00:13.937Z,27.50
2017-06-18T13:02:40.118Z,27.70
2017-06-18T13:05:07.533Z,27.90
2017-06-18T13:07:35.366Z,28.00
2017-06-18T13:10:02.744Z,28.00
2017-06-18T13:12:28.956Z,28.10
2017-06-18T13:14:55.970Z,28.20
2017-06-18T13:17:22.179Z,28.10
2017-06-18T13:19:48.427Z,28.10
2017-06-18T13:22:14.624Z,28.10
2017-06-18T13:24:41.612Z,28.20
2017-06-18T13:27:07.925Z,28.20
2017-06-18T13:29:34.228Z,27.80
2017-06-18T13:32:01.215Z,27.90
2017-06-18T13:34:27.422Z,27.90
2017-06-18T13:36:53.624Z,27.90
2017-06-18T13:39:19.859Z,27.90
2017-06-18T13:41:46.800Z,27.80
2017-06-18T13:44:12.995Z,27.70
2017-06-18T13:46:39.225Z,27.60
2017-06-18T13:49:05.397Z,27.60
2017-06-18T13:51:32.680Z,27.50
2017-06-18T13:53:58.924Z,27.20
2017-06-18T13:56:25.144Z,27.00
2017-06-18T13:58:51.572Z,27.00
2017-06-18T14:01:17.750Z,27.00
2017-06-18T14:03:44.124Z,26.90
2017-06-18T14:06:10.392Z,27.60
2017-06-18T14:08:37.293Z,26.70
2017-06-18T14:11:03.506Z,26.60
2017-06-18T14:13:30.672Z,26.60
2017-06-18T14:15:57.124Z,26.60
2017-06-18T14:18:24.786Z,26.50
2017-06-18T14:20:50.987Z,26.50
2017-06-18T14:23:17.975Z,26.30
2017-06-18T14:25:44.146Z,26.50
2017-06-18T14:28:11.082Z,26.20
2017-06-18T14:30:37.302Z,26.10
2017-06-18T14:33:03.487Z,26.50
2017-06-18T14:35:29.746Z,26.20
2017-06-18T14:37:55.953Z,26.20
2017-06-18T14:40:22.169Z,26.30
2017-06-18T14:42:48.392Z,26.30
2017-06-18T14:45:14.566Z,26.30
2017-06-18T14:47:40.808Z,26.20
2017-06-18T14:50:06.969Z,26.10
2017-06-18T14:52:33.218Z,26.00
2017-06-18T14:54:59.447Z,26.40
2017-06-18T14:57:25.799Z,26.10
2017-06-18T14:59:52.044Z,25.90
2017-06-18T15:02:18.246Z,25.90
2017-06-18T15:04:44.495Z,25.90
2017-06-18T15:07:10.642Z,25.90
2017-06-18T15:09:36.833Z,25.90
2017-06-18T15:12:03.073Z,26.00
2017-06-18T15:14:29.300Z,25.90
2017-06-18T15:16:55.542Z,25.80
2017-06-18T15:19:21.778Z,25.80
2017-06-18T15:21:48.003Z,25.80
2017-06-18T15:24:14.191Z,25.70
2017-06-18T15:26:40.394Z,25.70
2017-06-18T15:29:07.342Z,25.70
2017-06-18T15:31:34.244Z,25.70
2017-06-18T15:34:00.458Z,25.70
2017-06-18T15:36:26.702Z,25.70
2017-06-18T15:38:52.895Z,25.70
2017-06-18T15:41:19.087Z,25.70
2017-06-18T15:43:45.278Z,25.70
2017-06-18T15:46:11.454Z,25.80
2017-06-18T15:48:38.411Z,25.60
2017-06-18T15:51:04.607Z,25.50
2017-06-18T15:53:30.802Z,25.50
2017-06-18T15:55:56.994Z,25.90
2017-06-18T15:58:23.971Z,25.60
2017-06-18T16:00:50.157Z,25.50
2017-06-18T16:03:17.107Z,25.50
2017-06-18T16:05:44.102Z,25.40
2017-06-18T16:08:10.266Z,25.40
2017-06-18T16:10:36.515Z,25.40
2017-06-18T16:13:03.802Z,25.30
2017-06-18T16:15:29.990Z,25.30
2017-06-18T16:17:56.921Z,25.30
2017-06-18T16:20:23.866Z,25.30
2017-06-18T16:22:50.104Z,25.30
2017-06-18T16:25:17.034Z,25.30
2017-06-18T16:27:43.243Z,25.30
2017-06-18T16:30:09.467Z,25.30
2017-06-18T16:32:35.630Z,25.20
2017-06-18T16:35:02.619Z,25.20
2017-06-18T16:37:29.168Z,25.20
2017-06-18T16:39:55.402Z,25.20
2017-06-18T16:42:21.697Z,25.20
2017-06-18T16:44:48.142Z,25.20
2017-06-18T16:47:14.314Z,25.20
2017-06-18T16:49:40.567Z,25.20
2017-06-18T16:52:07.528Z,25.20
2017-06-18T16:54:34.511Z,25.10
2017-06-18T16:57:00.713Z,25.10
2017-06-18T16:59:26.986Z,25.10
2017-06-18T17:01:53.168Z,25.00
2017-06-18T17:04:19.368Z,25.00
2017-06-18T17:06:45.633Z,24.90
2017-06-18T17:09:11.871Z,24.90
2017-06-18T17:11:38.041Z,24.90
2017-06-18T17:14:04.255Z,24.90
2017-06-18T17:16:30.510Z,24.90
2017-06-18T17:18:56.715Z,24.90
2017-06-18T17:21:28.955Z,24.90
2017-06-18T17:23:55.250Z,24.90
2017-06-18T17:26:22.258Z,24.90
2017-06-18T17:28:48.427Z,24.90
2017-06-18T17:31:15.385Z,24.80
2017-06-18T17:33:42.392Z,24.90
2017-06-18T17:36:08.599Z,24.80
2017-06-18T17:38:34.849Z,24.80
2017-06-18T17:41:01.064Z,24.70
2017-06-18T17:43:27.268Z,24.70
2017-06-18T17:45:53.466Z,24.60
2017-06-18T17:48:20.438Z,24.60
2017-06-18T17:50:46.632Z,24.60
2017-06-18T17:53:12.838Z,24.60
2017-06-18T17:55:39.022Z,24.50
2017-06-18T17:58:05.230Z,24.60
2017-06-18T18:00:32.204Z,24.50
2017-06-18T18:02:58.410Z,24.50
2017-06-18T18:05:25.336Z,24.50
2017-06-18T18:07:51.511Z,24.50
2017-06-18T18:10:17.734Z,24.60
2017-06-18T18:12:43.941Z,24.60
2017-06-18T18:15:10.192Z,24.60
2017-06-18T18:17:36.409Z,24.60
2017-06-18T18:20:02.632Z,23.50
2017-06-18T18:22:29.011Z,24.60
2017-06-18T18:24:55.232Z,24.60
2017-06-18T18:27:21.494Z,24.60
2017-06-18T18:29:47.769Z,24.60
2017-06-18T18:32:14.012Z,24.50
2017-06-18T18:34:40.228Z,24.50
2017-06-18T18:37:06.415Z,24.40
2017-06-18T18:39:32.610Z,24.50
2017-06-18T18:41:58.854Z,24.50
2017-06-18T18:44:25.059Z,24.40
2017-06-18T18:46:51.252Z,24.40
2017-06-18T18:49:17.451Z,24.40
2017-06-18T18:51:43.703Z,24.40
2017-06-18T18:54:10.271Z,24.30
2017-06-18T18:56:36.502Z,24.30
2017-06-18T18:59:02.734Z,24.20
2017-06-18T19:01:28.944Z,24.20
2017-06-18T19:03:55.394Z,24.30
2017-06-18T19:06:21.581Z,24.20
2017-06-18T19:08:48.563Z,24.10
2017-06-18T19:11:53.418Z,24.10
2017-06-18T19:14:19.716Z,24.10
2017-06-18T19:16:45.922Z,24.10
2017-06-18T19:19:12.872Z,24.00
2017-06-18T19:21:39.843Z,24.00
2017-06-18T19:24:07.345Z,24.00
2017-06-18T19:26:34.318Z,23.90
2017-06-18T19:29:01.289Z,23.90
2017-06-18T19:31:27.504Z,23.80
2017-06-18T19:33:54.088Z,23.80
2017-06-18T19:36:20.317Z,23.80
2017-06-18T19:38:46.510Z,23.70
2017-06-18T19:41:12.743Z,23.70
2017-06-18T19:43:38.943Z,23.70
2017-06-18T19:46:05.937Z,23.60
2017-06-18T19:48:32.676Z,23.60
2017-06-18T19:50:58.935Z,23.60
2017-06-18T19:53:25.168Z,23.60
2017-06-18T19:55:51.383Z,23.60
2017-06-18T19:58:17.600Z,23.60
2017-06-18T20:00:43.839Z,23.50
2017-06-18T20:03:10.825Z,23.50
2017-06-18T20:05:52.747Z,23.50
2017-06-18T20:08:18.955Z,23.50
2017-06-18T20:10:45.510Z,23.40
2017-06-18T20:13:11.718Z,23.40
2017-06-18T20:15:38.819Z,23.30
2017-06-18T20:18:05.042Z,23.20
2017-06-18T20:20:31.254Z,23.20
2017-06-18T20:22:57.429Z,23.10
2017-06-18T20:25:23.669Z,23.00
2017-06-18T20:27:49.872Z,22.90
2017-06-18T20:30:16.108Z,22.80
2017-06-18T20:32:42.385Z,22.70
2017-06-18T20:35:08.639Z,22.70
2017-06-18T20:37:34.923Z,22.50
2017-06-18T20:40:01.109Z,22.60
2017-06-18T20:42:27.312Z,22.40
2017-06-18T20:44:53.522Z,22.30
2017-06-18T20:47:20.467Z,22.30
2017-06-18T20:49:47.561Z,22.30
2017-06-18T20:52:13.837Z,22.30
2017-06-18T20:54:41.252Z,22.30
2017-06-18T20:57:07.456Z,22.30
2017-06-18T20:59:33.656Z,22.30
2017-06-18T21:02:00.632Z,22.20
2017-06-18T21:04:26.839Z,22.10
2017-06-18T21:06:53.793Z,22.10
2017-06-18T21:09:20.047Z,22.10
2017-06-18T21:11:46.233Z,22.00
2017-06-18T21:14:13.174Z,22.00
2017-06-18T21:16:39.371Z,22.00
2017-06-18T21:19:06.339Z,22.10
2017-06-18T21:21:32.548Z,22.10
2017-06-18T21:23:58.738Z,22.10
2017-06-18T21:26:24.905Z,22.10
2017-06-18T21:28:51.133Z,22.10
2017-06-18T21:31:17.289Z,22.10
2017-06-18T21:33:43.677Z,22.00
2017-06-18T21:36:09.987Z,22.00
2017-06-18T21:38:36.230Z,21.90
2017-06-18T21:41:02.608Z,21.90
2017-06-18T21:43:28.802Z,21.90
2017-06-18T21:45:54.967Z,21.80
2017-06-18T21:48:21.174Z,21.80
2017-06-18T21:50:47.383Z,21.90
2017-06-18T21:53:13.919Z,21.90
2017-06-18T21:55:40.192Z,21.80
2017-06-18T21:58:06.516Z,21.80
2017-06-18T22:00:32.789Z,21.80
2017-06-18T22:02:58.935Z,21.80
2017-06-18T22:05:25.088Z,21.80
2017-06-18T22:07:51.320Z,21.70
2017-06-18T22:10:17.545Z,21.60
2017-06-18T22:12:43.943Z,21.50
2017-06-18T22:15:10.196Z,21.50
2017-06-18T22:17:36.443Z,21.60
2017-06-18T22:20:02.631Z,21.60
2017-06-18T22:22:28.839Z,21.50
2017-06-18T22:24:55.034Z,21.50
2017-06-18T22:27:21.215Z,21.50
2017-06-18T22:29:47.379Z,21.50
2017-06-18T22:32:13.559Z,21.50
2017-06-18T22:34:39.784Z,21.40
2017-06-18T22:37:05.958Z,21.40
2017-06-18T22:39:32.165Z,21.40
2017-06-18T22:41:58.374Z,21.40
2017-06-18T22:44:24.612Z,21.40
2017-06-18T22:46:50.812Z,21.30
2017-06-18T22:49:17.739Z,21.30
2017-06-18T22:51:43.946Z,21.30
2017-06-18T22:54:10.148Z,21.20
2017-06-18T22:56:36.344Z,21.20
2017-06-18T22:59:03.276Z,21.20
2017-06-18T23:01:29.817Z,21.20
2017-06-18T23:03:56.750Z,21.20
2017-06-18T23:06:23.517Z,21.20
2017-06-18T23:11:17.636Z,21.10
2017-06-18T23:13:43.796Z,21.10
2017-06-18T23:16:09.954Z,21.00
2017-06-18T23:18:36.994Z,21.00
2017-06-18T23:21:04.750Z,21.00
2017-06-18T23:23:30.940Z,21.00
2017-06-18T23:25:57.131Z,21.00
2017-06-18T23:28:23.287Z,21.00
2017-06-18T23:30:49.516Z,20.90
2017-06-18T23:33:15.711Z,20.90
2017-06-18T23:35:42.628Z,20.90
2017-06-18T23:38:08.921Z,20.80
2017-06-18T23:40:38.128Z,20.80
2017-06-18T23:43:04.314Z,20.80
2017-06-18T23:45:31.317Z,20.80
2017-06-18T23:47:58.507Z,20.90
2017-06-18T23:50:26.459Z,20.80
2017-06-18T23:52:52.674Z,20.70
2017-06-18T23:55:18.928Z,20.80
2017-06-18T23:57:45.107Z,20.70
